Muncie, IN

12:57 PM EDT on April 01, 2015 (GMT -0400)
Delaware County-Johnson | | Change Station
CLOSE
Current Station
Airport
Location: Muncie,
Elevation: 938 ft
Nearby Weather Stations

Elev 938 ft 40.23 °N, 85.39 °W | Updated 1 hour ago

Clear
Clear
57 °F
Feels Like 57 °F
N
10
Wind Variable Wind from SW

Today
High -- | Low -- °F
--% Chance of Precip.
Yesterday
High -- | Low -- °F
Precip. -- in
7:25 AM 8:05 PM
Waxing Gibbous, 93% visible
Pressure 30.14 in
Visibility 10.0 miles
Clouds Clear
Dew Point 35 °F
Humidity 44%
Rainfall 0.00 in
Snow Depth Not available.
UV 7 out of 12
Pollen 6.50 out of 12
Air Quality Not available.
Flu Activity Not available.
METAR KMIE 011553Z 23009KT 10SM CLR 14/02 A3014 RMK AO2 SLP205 T01390017

More Conditions Fewer Conditions

Pressure 30.14 in
Visibility 10.0 miles
Clouds Clear
Dew Point 35 °F
Humidity 44%
Rainfall 0.00 in
Snow Depth Not available.
UV 7 out of 12
Pollen 6.50 out of 12
Air Quality Not available.
Flu Activity Not available.
METAR KMIE 011553Z 23009KT 10SM CLR 14/02 A3014 RMK AO2 SLP205 T01390017

More Conditions Fewer Conditions

10-Day Weather Forecast

Almanac

Astronomy

Apr. 01, 2015 Rise Set
Actual Time
Civil Twilight
Nautical Twilight
Astronomical Twilight
Moon
Length of Visible Light
Length of Day
Tomorrow will be .
, % of the Moon is Illuminated

Today's Extremes

State Highs State Lows

Community

WunderPhotos

Upload Photos

1,810,005 photos uploaded!

WunderBlogs® & News

Nearby

Air Quality

  Air Quality AQ Index Pollutant
Not available.

Snow Depth

Station Depth Elevation

Earthquake Activity

City Distance Mag. Time & Date
Minimum magnitude displayed is 2.5.

Coastal Water Temperatures

Place Temperature

Stations

Nearby Weather Stations

Station Location Temp. Windchill Dew Point Humidity Wind Precip. Elev Updated Type